sensor_id;sensor_type;location;lat;lon;timestamp;temperature;humidity
56103;DHT22;41970;48.774;9.280;2023-05-10T00:01:32;16.50;99.90
56103;DHT22;41970;48.774;9.280;2023-05-10T00:03:58;16.60;99.90
56103;DHT22;41970;48.774;9.280;2023-05-10T00:06:24;16.60;99.90
56103;DHT22;41970;48.774;9.280;2023-05-10T00:08:49;16.50;99.90
56103;DHT22;41970;48.774;9.280;2023-05-10T00:11:15;16.50;99.90
56103;DHT22;41970;48.774;9.280;2023-05-10T00:13:41;16.50;99.90
56103;DHT22;41970;48.774;9.280;2023-05-10T00:16:06;16.50;99.90
56103;DHT22;41970;48.774;9.280;2023-05-10T00:18:32;16.60;99.90
56103;DHT22;41970;48.774;9.280;2023-05-10T00:20:58;16.60;99.90
56103;DHT22;41970;48.774;9.280;2023-05-10T00:23:24;16.50;99.90
56103;DHT22;41970;48.774;9.280;2023-05-10T00:25:49;16.40;99.90
56103;DHT22;41970;48.774;9.280;2023-05-10T00:28:15;16.40;99.90
56103;DHT22;41970;48.774;9.280;2023-05-10T00:30:41;16.30;99.90
56103;DHT22;41970;48.774;9.280;2023-05-10T00:33:07;16.20;99.90
56103;DHT22;41970;48.774;9.280;2023-05-10T00:35:32;16.20;99.90
56103;DHT22;41970;48.774;9.280;2023-05-10T00:37:58;16.10;99.90
56103;DHT22;41970;48.774;9.280;2023-05-10T00:40:24;16.00;99.90
56103;DHT22;41970;48.774;9.280;2023-05-10T00:42:51;15.90;99.90
56103;DHT22;41970;48.774;9.280;2023-05-10T00:45:17;15.90;99.90
56103;DHT22;41970;48.774;9.280;2023-05-10T00:47:43;15.80;99.90
56103;DHT22;41970;48.774;9.280;2023-05-10T00:50:09;15.70;99.90
56103;DHT22;41970;48.774;9.280;2023-05-10T00:52:36;15.60;99.90
56103;DHT22;41970;48.774;9.280;2023-05-10T00:55:02;15.50;99.90
56103;DHT22;41970;48.774;9.280;2023-05-10T00:57:29;15.40;99.90
56103;DHT22;41970;48.774;9.280;2023-05-10T00:59:55;15.40;99.90
56103;DHT22;41970;48.774;9.280;2023-05-10T01:02:22;15.40;99.90
56103;DHT22;41970;48.774;9.280;2023-05-10T01:04:49;15.40;99.90
56103;DHT22;41970;48.774;9.280;2023-05-10T01:07:15;15.40;99.90
56103;DHT22;41970;48.774;9.280;2023-05-10T01:09:41;15.50;99.90
56103;DHT22;41970;48.774;9.280;2023-05-10T01:12:07;15.50;99.90
56103;DHT22;41970;48.774;9.280;2023-05-10T01:14:33;15.40;99.90
56103;DHT22;41970;48.774;9.280;2023-05-10T01:17:00;15.40;99.90
56103;DHT22;41970;48.774;9.280;2023-05-10T01:19:28;15.40;99.90
56103;DHT22;41970;48.774;9.280;2023-05-10T01:22:20;15.50;99.90
56103;DHT22;41970;48.774;9.280;2023-05-10T01:34:00;15.60;99.90
56103;DHT22;41970;48.774;9.280;2023-05-10T01:36:31;15.50;99.90
56103;DHT22;41970;48.774;9.280;2023-05-10T01:40:13;15.50;99.90
56103;DHT22;41970;48.774;9.280;2023-05-10T01:42:09;15.60;99.90
56103;DHT22;41970;48.774;9.280;2023-05-10T01:47:20;15.50;99.90
56103;DHT22;41970;48.774;9.280;2023-05-10T01:49:53;15.50;99.90
56103;DHT22;41970;48.774;9.280;2023-05-10T01:52:25;15.40;99.90
56103;DHT22;41970;48.774;9.280;2023-05-10T01:55:16;15.30;99.90
56103;DHT22;41970;48.774;9.280;2023-05-10T01:57:44;15.20;99.90
56103;DHT22;41970;48.774;9.280;2023-05-10T02:00:12;15.10;99.90
56103;DHT22;41970;48.774;9.280;2023-05-10T02:02:45;15.10;99.90
56103;DHT22;41970;48.774;9.280;2023-05-10T02:05:13;15.10;99.90
56103;DHT22;41970;48.774;9.280;2023-05-10T02:07:41;15.10;99.90
56103;DHT22;41970;48.774;9.280;2023-05-10T02:10:08;15.10;99.90
56103;DHT22;41970;48.774;9.280;2023-05-10T02:12:36;15.10;99.90
56103;DHT22;41970;48.774;9.280;2023-05-10T02:15:05;15.10;99.90
56103;DHT22;41970;48.774;9.280;2023-05-10T02:17:32;15.20;99.90
56103;DHT22;41970;48.774;9.280;2023-05-10T02:19:59;15.10;99.90
56103;DHT22;41970;48.774;9.280;2023-05-10T02:22:27;15.10;99.90
56103;DHT22;41970;48.774;9.280;2023-05-10T02:24:58;14.90;99.90
56103;DHT22;41970;48.774;9.280;2023-05-10T02:27:24;14.80;99.90
56103;DHT22;41970;48.774;9.280;2023-05-10T02:29:51;14.80;99.90
56103;DHT22;41970;48.774;9.280;2023-05-10T02:32:18;14.70;99.90
56103;DHT22;41970;48.774;9.280;2023-05-10T02:34:46;14.70;99.90
56103;DHT22;41970;48.774;9.280;2023-05-10T02:37:18;14.70;99.90
56103;DHT22;41970;48.774;9.280;2023-05-10T02:39:53;14.70;99.90
56103;DHT22;41970;48.774;9.280;2023-05-10T02:42:25;14.70;99.90
56103;DHT22;41970;48.774;9.280;2023-05-10T02:44:55;14.70;99.90
56103;DHT22;41970;48.774;9.280;2023-05-10T02:47:22;14.80;99.90
56103;DHT22;41970;48.774;9.280;2023-05-10T02:49:48;14.80;99.90
56103;DHT22;41970;48.774;9.280;2023-05-10T02:52:21;14.80;99.90
56103;DHT22;41970;48.774;9.280;2023-05-10T02:54:50;14.80;99.90
56103;DHT22;41970;48.774;9.280;2023-05-10T02:57:25;14.90;99.90
56103;DHT22;41970;48.774;9.280;2023-05-10T02:59:51;14.80;99.90
56103;DHT22;41970;48.774;9.280;2023-05-10T03:02:17;14.80;99.90
56103;DHT22;41970;48.774;9.280;2023-05-10T03:04:43;14.70;99.90
56103;DHT22;41970;48.774;9.280;2023-05-10T03:07:09;14.70;99.90
56103;DHT22;41970;48.774;9.280;2023-05-10T03:09:35;14.70;99.90
56103;DHT22;41970;48.774;9.280;2023-05-10T03:12:11;14.60;99.90
56103;DHT22;41970;48.774;9.280;2023-05-10T03:15:03;14.50;99.90
56103;DHT22;41970;48.774;9.280;2023-05-10T03:20:42;14.30;99.90
56103;DHT22;41970;48.774;9.280;2023-05-10T03:23:32;14.20;99.90
56103;DHT22;41970;48.774;9.280;2023-05-10T03:25:59;14.10;99.90
56103;DHT22;41970;48.774;9.280;2023-05-10T03:28:26;14.10;99.90
56103;DHT22;41970;48.774;9.280;2023-05-10T03:30:55;14.10;99.90
56103;DHT22;41970;48.774;9.280;2023-05-10T03:33:21;14.10;99.90
56103;DHT22;41970;48.774;9.280;2023-05-10T03:35:48;14.10;99.90
56103;DHT22;41970;48.774;9.280;2023-05-10T03:38:16;14.20;99.90
56103;DHT22;41970;48.774;9.280;2023-05-10T03:40:42;14.30;99.90
56103;DHT22;41970;48.774;9.280;2023-05-10T03:43:08;14.00;99.90
56103;DHT22;41970;48.774;9.280;2023-05-10T03:45:34;14.00;99.90
56103;DHT22;41970;48.774;9.280;2023-05-10T03:48:00;14.00;99.90
56103;DHT22;41970;48.774;9.280;2023-05-10T03:50:26;14.00;99.90
56103;DHT22;41970;48.774;9.280;2023-05-10T03:52:52;14.10;99.90
56103;DHT22;41970;48.774;9.280;2023-05-10T03:55:17;14.20;99.90
56103;DHT22;41970;48.774;9.280;2023-05-10T03:57:43;14.20;99.90
56103;DHT22;41970;48.774;9.280;2023-05-10T04:00:10;14.20;99.90
56103;DHT22;41970;48.774;9.280;2023-05-10T04:02:36;14.10;99.90
56103;DHT22;41970;48.774;9.280;2023-05-10T04:05:02;14.10;99.90
56103;DHT22;41970;48.774;9.280;2023-05-10T04:07:28;14.10;99.90
56103;DHT22;41970;48.774;9.280;2023-05-10T04:09:53;14.10;99.90
56103;DHT22;41970;48.774;9.280;2023-05-10T04:12:19;14.10;99.90
56103;DHT22;41970;48.774;9.280;2023-05-10T04:14:45;14.10;99.90
56103;DHT22;41970;48.774;9.280;2023-05-10T04:17:11;14.10;99.90
56103;DHT22;41970;48.774;9.280;2023-05-10T04:19:36;14.10;99.90
56103;DHT22;41970;48.774;9.280;2023-05-10T04:22:03;14.20;99.90
56103;DHT22;41970;48.774;9.280;2023-05-10T04:24:28;14.10;99.90
56103;DHT22;41970;48.774;9.280;2023-05-10T04:26:54;14.10;99.90
56103;DHT22;41970;48.774;9.280;2023-05-10T04:29:20;14.10;99.90
56103;DHT22;41970;48.774;9.280;2023-05-10T04:31:46;14.20;99.90
56103;DHT22;41970;48.774;9.280;2023-05-10T04:34:12;14.20;99.90
56103;DHT22;41970;48.774;9.280;2023-05-10T04:36:38;14.20;99.90
56103;DHT22;41970;48.774;9.280;2023-05-10T04:39:04;14.30;99.90
56103;DHT22;41970;48.774;9.280;2023-05-10T04:41:30;14.40;99.90
56103;DHT22;41970;48.774;9.280;2023-05-10T04:43:57;14.40;99.90
56103;DHT22;41970;48.774;9.280;2023-05-10T04:46:23;14.60;99.90
56103;DHT22;41970;48.774;9.280;2023-05-10T04:48:48;14.70;99.90
56103;DHT22;41970;48.774;9.280;2023-05-10T04:51:14;14.80;99.90
56103;DHT22;41970;48.774;9.280;2023-05-10T04:53:40;14.90;99.90
56103;DHT22;41970;48.774;9.280;2023-05-10T04:56:06;15.00;99.90
56103;DHT22;41970;48.774;9.280;2023-05-10T04:58:32;15.10;99.90
56103;DHT22;41970;48.774;9.280;2023-05-10T05:01:05;15.00;99.90
56103;DHT22;41970;48.774;9.280;2023-05-10T05:03:32;15.00;99.90
56103;DHT22;41970;48.774;9.280;2023-05-10T05:05:58;15.10;99.90
56103;DHT22;41970;48.774;9.280;2023-05-10T05:08:24;15.10;99.90
56103;DHT22;41970;48.774;9.280;2023-05-10T05:10:50;15.00;99.90
56103;DHT22;41970;48.774;9.280;2023-05-10T05:13:16;15.00;99.90
56103;DHT22;41970;48.774;9.280;2023-05-10T05:15:42;15.00;99.90
56103;DHT22;41970;48.774;9.280;2023-05-10T05:18:07;15.00;99.90
56103;DHT22;41970;48.774;9.280;2023-05-10T05:20:33;15.10;99.90
56103;DHT22;41970;48.774;9.280;2023-05-10T05:23:00;15.10;99.90
56103;DHT22;41970;48.774;9.280;2023-05-10T05:25:26;15.10;99.90
56103;DHT22;41970;48.774;9.280;2023-05-10T05:27:52;15.10;99.90
56103;DHT22;41970;48.774;9.280;2023-05-10T05:30:18;15.10;99.90
56103;DHT22;41970;48.774;9.280;2023-05-10T05:32:43;15.10;99.90
56103;DHT22;41970;48.774;9.280;2023-05-10T05:35:09;15.20;99.90
56103;DHT22;41970;48.774;9.280;2023-05-10T05:37:35;15.10;99.90
56103;DHT22;41970;48.774;9.280;2023-05-10T05:40:01;15.20;99.90
56103;DHT22;41970;48.774;9.280;2023-05-10T05:42:27;15.30;99.90
56103;DHT22;41970;48.774;9.280;2023-05-10T05:44:53;15.30;99.90
56103;DHT22;41970;48.774;9.280;2023-05-10T05:47:18;15.10;99.90
56103;DHT22;41970;48.774;9.280;2023-05-10T05:49:44;15.20;99.90
56103;DHT22;41970;48.774;9.280;2023-05-10T05:52:12;15.30;99.90
56103;DHT22;41970;48.774;9.280;2023-05-10T05:54:38;15.30;99.90
56103;DHT22;41970;48.774;9.280;2023-05-10T05:57:04;15.40;99.90
56103;DHT22;41970;48.774;9.280;2023-05-10T05:59:30;15.50;99.90
56103;DHT22;41970;48.774;9.280;2023-05-10T06:01:56;15.50;99.90
56103;DHT22;41970;48.774;9.280;2023-05-10T06:04:23;15.70;99.90
56103;DHT22;41970;48.774;9.280;2023-05-10T06:06:48;15.70;99.90
56103;DHT22;41970;48.774;9.280;2023-05-10T06:09:14;15.70;99.90
56103;DHT22;41970;48.774;9.280;2023-05-10T06:11:40;15.70;99.90
56103;DHT22;41970;48.774;9.280;2023-05-10T06:14:06;15.80;99.90
56103;DHT22;41970;48.774;9.280;2023-05-10T06:16:34;15.80;99.90
56103;DHT22;41970;48.774;9.280;2023-05-10T06:19:03;15.80;99.90
56103;DHT22;41970;48.774;9.280;2023-05-10T06:21:28;15.80;99.90
56103;DHT22;41970;48.774;9.280;2023-05-10T06:23:54;15.90;99.90
56103;DHT22;41970;48.774;9.280;2023-05-10T06:26:20;15.80;99.90
56103;DHT22;41970;48.774;9.280;2023-05-10T06:28:46;15.90;99.90
56103;DHT22;41970;48.774;9.280;2023-05-10T06:31:12;15.80;99.90
56103;DHT22;41970;48.774;9.280;2023-05-10T06:33:37;15.80;99.90
56103;DHT22;41970;48.774;9.280;2023-05-10T06:36:03;15.70;99.90
56103;DHT22;41970;48.774;9.280;2023-05-10T06:38:29;15.70;99.90
56103;DHT22;41970;48.774;9.280;2023-05-10T06:40:55;15.70;99.90
56103;DHT22;41970;48.774;9.280;2023-05-10T06:43:21;15.80;99.90
56103;DHT22;41970;48.774;9.280;2023-05-10T06:45:48;15.80;99.90
56103;DHT22;41970;48.774;9.280;2023-05-10T06:48:13;15.80;99.90
56103;DHT22;41970;48.774;9.280;2023-05-10T06:50:39;15.90;99.90
56103;DHT22;41970;48.774;9.280;2023-05-10T06:53:05;15.90;99.90
56103;DHT22;41970;48.774;9.280;2023-05-10T06:55:31;15.90;99.90
56103;DHT22;41970;48.774;9.280;2023-05-10T06:57:56;15.90;99.90
56103;DHT22;41970;48.774;9.280;2023-05-10T07:00:22;15.90;99.90
56103;DHT22;41970;48.774;9.280;2023-05-10T07:02:48;16.00;99.90
56103;DHT22;41970;48.774;9.280;2023-05-10T07:05:14;15.90;99.90
56103;DHT22;41970;48.774;9.280;2023-05-10T07:07:40;16.00;99.90
56103;DHT22;41970;48.774;9.280;2023-05-10T07:10:07;16.00;99.90
56103;DHT22;41970;48.774;9.280;2023-05-10T07:12:33;15.90;99.90
56103;DHT22;41970;48.774;9.280;2023-05-10T07:14:59;15.90;99.90
56103;DHT22;41970;48.774;9.280;2023-05-10T07:17:25;15.80;99.90
56103;DHT22;41970;48.774;9.280;2023-05-10T07:19:50;15.80;99.90
56103;DHT22;41970;48.774;9.280;2023-05-10T07:22:19;15.80;99.90
56103;DHT22;41970;48.774;9.280;2023-05-10T07:24:45;15.80;99.90
56103;DHT22;41970;48.774;9.280;2023-05-10T07:27:11;15.80;99.90
56103;DHT22;41970;48.774;9.280;2023-05-10T07:29:38;15.80;99.90
56103;DHT22;41970;48.774;9.280;2023-05-10T07:32:04;15.90;99.90
56103;DHT22;41970;48.774;9.280;2023-05-10T07:34:31;16.00;99.90
56103;DHT22;41970;48.774;9.280;2023-05-10T07:37:00;16.00;99.90
56103;DHT22;41970;48.774;9.280;2023-05-10T07:39:27;15.90;99.90
56103;DHT22;41970;48.774;9.280;2023-05-10T07:41:53;16.00;99.90
56103;DHT22;41970;48.774;9.280;2023-05-10T07:44:19;16.10;99.90
56103;DHT22;41970;48.774;9.280;2023-05-10T07:46:46;16.20;99.90
56103;DHT22;41970;48.774;9.280;2023-05-10T07:49:12;16.30;99.90
56103;DHT22;41970;48.774;9.280;2023-05-10T07:51:38;16.30;99.90
56103;DHT22;41970;48.774;9.280;2023-05-10T07:54:03;16.20;99.90
56103;DHT22;41970;48.774;9.280;2023-05-10T07:56:31;16.10;99.90
56103;DHT22;41970;48.774;9.280;2023-05-10T07:58:58;16.10;99.90
56103;DHT22;41970;48.774;9.280;2023-05-10T08:01:25;16.10;99.90
56103;DHT22;41970;48.774;9.280;2023-05-10T08:03:51;16.20;99.90
56103;DHT22;41970;48.774;9.280;2023-05-10T08:06:19;16.30;99.90
56103;DHT22;41970;48.774;9.280;2023-05-10T08:08:46;16.40;99.90
56103;DHT22;41970;48.774;9.280;2023-05-10T08:11:18;16.40;99.90
56103;DHT22;41970;48.774;9.280;2023-05-10T08:13:45;16.50;99.90
56103;DHT22;41970;48.774;9.280;2023-05-10T08:16:11;16.50;99.90
56103;DHT22;41970;48.774;9.280;2023-05-10T08:18:37;16.50;99.90
56103;DHT22;41970;48.774;9.280;2023-05-10T08:21:03;16.50;99.90
56103;DHT22;41970;48.774;9.280;2023-05-10T08:23:29;16.60;99.90
56103;DHT22;41970;48.774;9.280;2023-05-10T08:25:56;16.50;99.90
56103;DHT22;41970;48.774;9.280;2023-05-10T08:28:22;16.40;99.90
56103;DHT22;41970;48.774;9.280;2023-05-10T08:30:47;16.30;99.90
56103;DHT22;41970;48.774;9.280;2023-05-10T08:33:13;16.40;99.90
56103;DHT22;41970;48.774;9.280;2023-05-10T08:35:39;16.30;99.90
56103;DHT22;41970;48.774;9.280;2023-05-10T08:38:05;16.20;99.90
56103;DHT22;41970;48.774;9.280;2023-05-10T08:40:30;16.20;99.90
56103;DHT22;41970;48.774;9.280;2023-05-10T08:43:14;16.20;99.90
56103;DHT22;41970;48.774;9.280;2023-05-10T08:45:43;16.30;99.90
56103;DHT22;41970;48.774;9.280;2023-05-10T08:48:11;16.30;99.90
56103;DHT22;41970;48.774;9.280;2023-05-10T08:50:39;16.30;99.90
56103;DHT22;41970;48.774;9.280;2023-05-10T08:53:09;16.30;99.90
56103;DHT22;41970;48.774;9.280;2023-05-10T08:55:35;16.30;99.90
56103;DHT22;41970;48.774;9.280;2023-05-10T08:58:06;16.30;99.90
56103;DHT22;41970;48.774;9.280;2023-05-10T09:00:32;16.40;99.90
56103;DHT22;41970;48.774;9.280;2023-05-10T09:02:59;16.40;99.90
56103;DHT22;41970;48.774;9.280;2023-05-10T09:05:25;16.50;99.90
56103;DHT22;41970;48.774;9.280;2023-05-10T09:07:51;16.60;99.90
56103;DHT22;41970;48.774;9.280;2023-05-10T09:10:17;16.60;99.90
56103;DHT22;41970;48.774;9.280;2023-05-10T09:12:44;16.60;99.90
56103;DHT22;41970;48.774;9.280;2023-05-10T09:15:11;16.60;99.90
56103;DHT22;41970;48.774;9.280;2023-05-10T09:17:39;16.70;99.90
56103;DHT22;41970;48.774;9.280;2023-05-10T09:20:06;16.80;99.90
56103;DHT22;41970;48.774;9.280;2023-05-10T09:22:35;16.80;99.90
56103;DHT22;41970;48.774;9.280;2023-05-10T09:25:15;16.80;99.90
56103;DHT22;41970;48.774;9.280;2023-05-10T09:27:45;16.90;99.90
56103;DHT22;41970;48.774;9.280;2023-05-10T09:30:24;16.90;99.90
56103;DHT22;41970;48.774;9.280;2023-05-10T09:32:51;16.80;99.90
56103;DHT22;41970;48.774;9.280;2023-05-10T09:35:19;16.80;99.90
56103;DHT22;41970;48.774;9.280;2023-05-10T09:37:46;16.70;99.90
56103;DHT22;41970;48.774;9.280;2023-05-10T09:40:20;16.60;99.90
56103;DHT22;41970;48.774;9.280;2023-05-10T09:45:22;16.50;99.90
56103;DHT22;41970;48.774;9.280;2023-05-10T09:47:49;16.50;99.90
56103;DHT22;41970;48.774;9.280;2023-05-10T09:50:18;16.40;99.90
56103;DHT22;41970;48.774;9.280;2023-05-10T09:55:22;16.40;99.90
56103;DHT22;41970;48.774;9.280;2023-05-10T09:57:49;16.50;99.90
56103;DHT22;41970;48.774;9.280;2023-05-10T10:00:19;16.40;99.90
56103;DHT22;41970;48.774;9.280;2023-05-10T10:02:47;16.40;99.90
56103;DHT22;41970;48.774;9.280;2023-05-10T10:05:13;16.40;99.90
56103;DHT22;41970;48.774;9.280;2023-05-10T10:07:39;16.50;99.90
56103;DHT22;41970;48.774;9.280;2023-05-10T10:10:05;16.60;99.90
56103;DHT22;41970;48.774;9.280;2023-05-10T10:12:37;16.70;99.90
56103;DHT22;41970;48.774;9.280;2023-05-10T10:15:03;16.70;99.90
56103;DHT22;41970;48.774;9.280;2023-05-10T10:17:31;16.80;99.90
56103;DHT22;41970;48.774;9.280;2023-05-10T10:19:58;16.80;99.90
56103;DHT22;41970;48.774;9.280;2023-05-10T10:22:24;16.80;99.90
56103;DHT22;41970;48.774;9.280;2023-05-10T10:24:50;16.80;99.90
56103;DHT22;41970;48.774;9.280;2023-05-10T10:36:08;16.60;99.90
56103;DHT22;41970;48.774;9.280;2023-05-10T10:41:35;16.60;99.90
56103;DHT22;41970;48.774;9.280;2023-05-10T10:49:51;16.70;99.90
56103;DHT22;41970;48.774;9.280;2023-05-10T10:55:08;16.70;99.90
56103;DHT22;41970;48.774;9.280;2023-05-10T11:00:38;16.80;99.90
56103;DHT22;41970;48.774;9.280;2023-05-10T11:03:11;16.80;99.90
56103;DHT22;41970;48.774;9.280;2023-05-10T11:05:49;16.90;99.90
56103;DHT22;41970;48.774;9.280;2023-05-10T11:13:39;16.80;99.90
56103;DHT22;41970;48.774;9.280;2023-05-10T11:16:18;16.80;99.90
56103;DHT22;41970;48.774;9.280;2023-05-10T11:18:58;16.60;99.90
56103;DHT22;41970;48.774;9.280;2023-05-10T11:21:24;16.50;99.90
56103;DHT22;41970;48.774;9.280;2023-05-10T11:23:55;16.40;99.90
56103;DHT22;41970;48.774;9.280;2023-05-10T11:26:50;16.40;99.90
56103;DHT22;41970;48.774;9.280;2023-05-10T11:29:18;16.20;99.90
56103;DHT22;41970;48.774;9.280;2023-05-10T11:31:46;16.10;99.90
56103;DHT22;41970;48.774;9.280;2023-05-10T11:34:29;16.00;99.90
56103;DHT22;41970;48.774;9.280;2023-05-10T11:37:01;16.00;99.90
56103;DHT22;41970;48.774;9.280;2023-05-10T11:39:28;16.10;99.90
56103;DHT22;41970;48.774;9.280;2023-05-10T11:41:54;16.00;99.90
56103;DHT22;41970;48.774;9.280;2023-05-10T11:44:21;16.00;99.90
56103;DHT22;41970;48.774;9.280;2023-05-10T11:46:46;16.20;99.90
56103;DHT22;41970;48.774;9.280;2023-05-10T11:49:12;16.20;99.90
56103;DHT22;41970;48.774;9.280;2023-05-10T11:51:38;16.30;99.90
56103;DHT22;41970;48.774;9.280;2023-05-10T11:54:09;16.30;99.90
56103;DHT22;41970;48.774;9.280;2023-05-10T11:56:39;16.40;99.90
56103;DHT22;41970;48.774;9.280;2023-05-10T11:59:05;16.40;99.90
56103;DHT22;41970;48.774;9.280;2023-05-10T12:01:31;16.50;99.90
56103;DHT22;41970;48.774;9.280;2023-05-10T12:03:58;16.60;99.90
56103;DHT22;41970;48.774;9.280;2023-05-10T12:06:30;16.50;99.90
56103;DHT22;41970;48.774;9.280;2023-05-10T12:08:57;16.50;99.90
56103;DHT22;41970;48.774;9.280;2023-05-10T12:11:28;16.30;99.90
56103;DHT22;41970;48.774;9.280;2023-05-10T12:13:54;16.20;99.90
56103;DHT22;41970;48.774;9.280;2023-05-10T12:16:23;16.20;99.90
56103;DHT22;41970;48.774;9.280;2023-05-10T12:18:53;16.30;99.90
56103;DHT22;41970;48.774;9.280;2023-05-10T12:21:20;16.30;99.90
56103;DHT22;41970;48.774;9.280;2023-05-10T12:23:50;16.30;99.90
56103;DHT22;41970;48.774;9.280;2023-05-10T12:26:16;16.30;99.90
56103;DHT22;41970;48.774;9.280;2023-05-10T12:28:42;16.20;99.90
56103;DHT22;41970;48.774;9.280;2023-05-10T12:31:08;16.30;99.90
56103;DHT22;41970;48.774;9.280;2023-05-10T12:33:38;16.30;99.90
56103;DHT22;41970;48.774;9.280;2023-05-10T12:36:09;16.30;99.90
56103;DHT22;41970;48.774;9.280;2023-05-10T12:38:43;16.40;99.90
56103;DHT22;41970;48.774;9.280;2023-05-10T12:41:12;16.40;99.90
56103;DHT22;41970;48.774;9.280;2023-05-10T12:43:38;16.50;99.90
56103;DHT22;41970;48.774;9.280;2023-05-10T12:46:11;16.50;99.90
56103;DHT22;41970;48.774;9.280;2023-05-10T12:48:37;16.60;99.90
56103;DHT22;41970;48.774;9.280;2023-05-10T12:51:04;16.60;99.90
56103;DHT22;41970;48.774;9.280;2023-05-10T12:53:30;16.60;99.90
56103;DHT22;41970;48.774;9.280;2023-05-10T12:55:56;16.70;99.90
56103;DHT22;41970;48.774;9.280;2023-05-10T12:58:22;16.80;99.90
56103;DHT22;41970;48.774;9.280;2023-05-10T13:00:48;16.90;99.90
56103;DHT22;41970;48.774;9.280;2023-05-10T13:03:14;16.80;99.90
56103;DHT22;41970;48.774;9.280;2023-05-10T13:05:41;16.80;99.90
56103;DHT22;41970;48.774;9.280;2023-05-10T13:08:07;16.70;99.90
56103;DHT22;41970;48.774;9.280;2023-05-10T13:10:33;16.70;99.90
56103;DHT22;41970;48.774;9.280;2023-05-10T13:12:59;16.60;99.90
56103;DHT22;41970;48.774;9.280;2023-05-10T13:15:25;16.70;99.90
56103;DHT22;41970;48.774;9.280;2023-05-10T13:17:52;16.70;99.90
56103;DHT22;41970;48.774;9.280;2023-05-10T13:20:18;16.70;99.90
56103;DHT22;41970;48.774;9.280;2023-05-10T13:22:44;16.70;99.90
56103;DHT22;41970;48.774;9.280;2023-05-10T13:25:11;16.80;99.90
56103;DHT22;41970;48.774;9.280;2023-05-10T13:27:40;16.80;99.90
56103;DHT22;41970;48.774;9.280;2023-05-10T13:30:07;16.80;99.90
56103;DHT22;41970;48.774;9.280;2023-05-10T13:32:33;16.80;99.90
56103;DHT22;41970;48.774;9.280;2023-05-10T13:35:00;16.80;99.90
56103;DHT22;41970;48.774;9.280;2023-05-10T13:37:25;16.90;99.90
56103;DHT22;41970;48.774;9.280;2023-05-10T13:39:51;16.90;99.90
56103;DHT22;41970;48.774;9.280;2023-05-10T13:42:17;16.90;99.90
56103;DHT22;41970;48.774;9.280;2023-05-10T13:44:43;16.90;99.90
56103;DHT22;41970;48.774;9.280;2023-05-10T13:47:09;17.10;99.90
56103;DHT22;41970;48.774;9.280;2023-05-10T13:49:35;17.10;99.90
56103;DHT22;41970;48.774;9.280;2023-05-10T13:52:01;17.20;99.90
56103;DHT22;41970;48.774;9.280;2023-05-10T13:54:33;17.20;99.90
56103;DHT22;41970;48.774;9.280;2023-05-10T13:56:59;17.20;99.90
56103;DHT22;41970;48.774;9.280;2023-05-10T13:59:25;17.20;99.90
56103;DHT22;41970;48.774;9.280;2023-05-10T14:01:51;17.20;99.90
56103;DHT22;41970;48.774;9.280;2023-05-10T14:04:17;17.30;99.90
56103;DHT22;41970;48.774;9.280;2023-05-10T14:06:42;17.40;99.90
56103;DHT22;41970;48.774;9.280;2023-05-10T14:09:08;17.40;99.90
56103;DHT22;41970;48.774;9.280;2023-05-10T14:11:34;17.40;99.90
56103;DHT22;41970;48.774;9.280;2023-05-10T14:14:00;17.50;99.90
56103;DHT22;41970;48.774;9.280;2023-05-10T14:16:25;17.50;99.90
56103;DHT22;41970;48.774;9.280;2023-05-10T14:18:52;17.60;99.90
56103;DHT22;41970;48.774;9.280;2023-05-10T14:21:18;17.60;99.90
56103;DHT22;41970;48.774;9.280;2023-05-10T14:23:44;17.70;99.90
56103;DHT22;41970;48.774;9.280;2023-05-10T14:26:10;17.70;99.90
56103;DHT22;41970;48.774;9.280;2023-05-10T14:28:35;17.70;99.90
56103;DHT22;41970;48.774;9.280;2023-05-10T14:31:01;17.60;99.90
56103;DHT22;41970;48.774;9.280;2023-05-10T14:33:27;17.60;99.90
56103;DHT22;41970;48.774;9.280;2023-05-10T14:35:54;17.60;99.90
56103;DHT22;41970;48.774;9.280;2023-05-10T14:38:22;17.60;99.90
56103;DHT22;41970;48.774;9.280;2023-05-10T14:40:48;17.70;99.90
56103;DHT22;41970;48.774;9.280;2023-05-10T14:43:13;17.70;99.90
56103;DHT22;41970;48.774;9.280;2023-05-10T14:45:39;17.60;99.90
56103;DHT22;41970;48.774;9.280;2023-05-10T14:48:05;17.70;99.90
56103;DHT22;41970;48.774;9.280;2023-05-10T14:50:31;17.70;99.90
56103;DHT22;41970;48.774;9.280;2023-05-10T14:52:57;17.70;99.90
56103;DHT22;41970;48.774;9.280;2023-05-10T14:55:24;17.80;99.80
56103;DHT22;41970;48.774;9.280;2023-05-10T14:57:50;17.80;99.90
56103;DHT22;41970;48.774;9.280;2023-05-10T15:00:16;17.90;99.90
56103;DHT22;41970;48.774;9.280;2023-05-10T15:02:45;17.80;99.90
56103;DHT22;41970;48.774;9.280;2023-05-10T15:05:10;17.70;99.90
56103;DHT22;41970;48.774;9.280;2023-05-10T15:07:36;17.60;99.90
56103;DHT22;41970;48.774;9.280;2023-05-10T15:10:02;17.60;99.90
56103;DHT22;41970;48.774;9.280;2023-05-10T15:12:28;17.60;99.90
56103;DHT22;41970;48.774;9.280;2023-05-10T15:14:54;17.50;99.90
56103;DHT22;41970;48.774;9.280;2023-05-10T15:17:19;17.60;99.90
56103;DHT22;41970;48.774;9.280;2023-05-10T15:19:45;17.60;99.90
56103;DHT22;41970;48.774;9.280;2023-05-10T15:22:11;17.60;99.90
56103;DHT22;41970;48.774;9.280;2023-05-10T15:24:37;17.60;99.90
56103;DHT22;41970;48.774;9.280;2023-05-10T15:27:02;17.60;99.90
56103;DHT22;41970;48.774;9.280;2023-05-10T15:29:29;17.60;99.90
56103;DHT22;41970;48.774;9.280;2023-05-10T15:31:55;17.60;99.70
56103;DHT22;41970;48.774;9.280;2023-05-10T15:34:22;17.70;99.90
56103;DHT22;41970;48.774;9.280;2023-05-10T15:36:48;17.60;99.90
56103;DHT22;41970;48.774;9.280;2023-05-10T15:39:14;17.70;99.90
56103;DHT22;41970;48.774;9.280;2023-05-10T15:41:39;17.70;99.90
56103;DHT22;41970;48.774;9.280;2023-05-10T15:44:05;17.80;99.90
56103;DHT22;41970;48.774;9.280;2023-05-10T15:46:31;17.80;99.90
56103;DHT22;41970;48.774;9.280;2023-05-10T15:48:57;17.80;99.70
56103;DHT22;41970;48.774;9.280;2023-05-10T15:51:26;17.70;99.90
56103;DHT22;41970;48.774;9.280;2023-05-10T15:53:52;17.70;99.90
56103;DHT22;41970;48.774;9.280;2023-05-10T15:56:18;17.70;99.70
56103;DHT22;41970;48.774;9.280;2023-05-10T15:58:44;17.60;99.90
56103;DHT22;41970;48.774;9.280;2023-05-10T16:01:10;17.60;99.90
56103;DHT22;41970;48.774;9.280;2023-05-10T16:03:37;17.60;99.90
56103;DHT22;41970;48.774;9.280;2023-05-10T16:06:03;17.60;99.90
56103;DHT22;41970;48.774;9.280;2023-05-10T16:08:29;17.60;99.90
56103;DHT22;41970;48.774;9.280;2023-05-10T16:10:55;17.70;99.90
56103;DHT22;41970;48.774;9.280;2023-05-10T16:13:21;17.80;99.90
56103;DHT22;41970;48.774;9.280;2023-05-10T16:15:47;17.80;99.90
56103;DHT22;41970;48.774;9.280;2023-05-10T16:18:13;17.80;99.90
56103;DHT22;41970;48.774;9.280;2023-05-10T16:20:39;17.70;99.90